Alexandria, Pennsylvania
Current Conditions -  °F | °C
As of 6:53 PM on Sunday 21 Dec 2014 (Local Time) from KAOO Reporting Station
Clear Clear  
Wind Chill: 27°   Ceiling: Unl
Heat Index: 27°   Visibility: 10mi
Dew Point: 21°   Wind: 3mph
Humidity: 78%   Direction: 60°ENE
Pressure: 30.26"   Gusts: NA
Location:  40.56°N, 78.1°W
Report Text: KAOO 212353Z AUTO 06003KT 10SM CLR M03/M06 A3026 RMK AO2 SLP266 T10281061 10011 21033 51009
Loading
Personal Weather Stations






























Interactive Weather Map New forecast layout! Learn more

10-Day Weather Forecast

Advertisements
Track Severe Weather on mobile